sensor_id;sensor_type;location;lat;lon;timestamp;P1;durP1;ratioP1;P2;durP2;ratioP2
35743;SDS011;21867;52.012;4.324;2022-08-19T00:01:44;5.45;;;4.95;;
35743;SDS011;21867;52.012;4.324;2022-08-19T00:04:28;6.85;;;5.47;;
35743;SDS011;21867;52.012;4.324;2022-08-19T00:06:56;8.27;;;5.40;;
35743;SDS011;21867;52.012;4.324;2022-08-19T00:09:23;5.60;;;5.07;;
35743;SDS011;21867;52.012;4.324;2022-08-19T00:11:51;5.78;;;4.82;;
35743;SDS011;21867;52.012;4.324;2022-08-19T00:14:24;5.95;;;5.15;;
35743;SDS011;21867;52.012;4.324;2022-08-19T00:16:52;10.73;;;5.25;;
35743;SDS011;21867;52.012;4.324;2022-08-19T00:19:20;5.65;;;5.15;;
35743;SDS011;21867;52.012;4.324;2022-08-19T00:21:49;5.38;;;4.68;;
35743;SDS011;21867;52.012;4.324;2022-08-19T00:24:16;8.05;;;5.63;;
35743;SDS011;21867;52.012;4.324;2022-08-19T00:26:44;7.03;;;5.43;;
35743;SDS011;21867;52.012;4.324;2022-08-19T00:29:12;7.22;;;5.55;;
35743;SDS011;21867;52.012;4.324;2022-08-19T00:31:54;6.53;;;5.57;;
35743;SDS011;21867;52.012;4.324;2022-08-19T00:34:22;8.80;;;5.00;;
35743;SDS011;21867;52.012;4.324;2022-08-19T00:36:50;8.82;;;5.38;;
35743;SDS011;21867;52.012;4.324;2022-08-19T00:39:18;6.40;;;4.70;;
35743;SDS011;21867;52.012;4.324;2022-08-19T00:41:45;5.97;;;5.38;;
35743;SDS011;21867;52.012;4.324;2022-08-19T00:44:16;6.70;;;5.95;;
35743;SDS011;21867;52.012;4.324;2022-08-19T00:46:45;6.95;;;4.97;;
35743;SDS011;21867;52.012;4.324;2022-08-19T00:49:24;6.68;;;5.43;;
35743;SDS011;21867;52.012;4.324;2022-08-19T00:51:55;6.65;;;5.63;;
35743;SDS011;21867;52.012;4.324;2022-08-19T00:54:23;6.35;;;5.70;;
35743;SDS011;21867;52.012;4.324;2022-08-19T00:56:56;8.98;;;6.40;;
35743;SDS011;21867;52.012;4.324;2022-08-19T00:59:24;7.15;;;6.47;;
35743;SDS011;21867;52.012;4.324;2022-08-19T01:02:12;7.55;;;5.80;;
35743;SDS011;21867;52.012;4.324;2022-08-19T01:04:39;9.27;;;6.70;;
35743;SDS011;21867;52.012;4.324;2022-08-19T01:07:07;8.93;;;6.82;;
35743;SDS011;21867;52.012;4.324;2022-08-19T01:09:40;9.38;;;6.65;;
35743;SDS011;21867;52.012;4.324;2022-08-19T01:12:08;10.27;;;7.45;;
35743;SDS011;21867;52.012;4.324;2022-08-19T01:14:41;9.10;;;8.15;;
35743;SDS011;21867;52.012;4.324;2022-08-19T01:17:09;10.40;;;8.48;;
35743;SDS011;21867;52.012;4.324;2022-08-19T01:19:37;11.55;;;8.25;;
35743;SDS011;21867;52.012;4.324;2022-08-19T01:22:12;10.00;;;8.77;;
35743;SDS011;21867;52.012;4.324;2022-08-19T01:24:43;10.65;;;9.65;;
35743;SDS011;21867;52.012;4.324;2022-08-19T01:27:15;14.20;;;10.73;;
35743;SDS011;21867;52.012;4.324;2022-08-19T01:29:42;12.13;;;10.82;;
35743;SDS011;21867;52.012;4.324;2022-08-19T01:32:12;11.50;;;9.43;;
35743;SDS011;21867;52.012;4.324;2022-08-19T01:34:59;10.45;;;9.52;;
35743;SDS011;21867;52.012;4.324;2022-08-19T01:37:26;13.25;;;11.60;;
35743;SDS011;21867;52.012;4.324;2022-08-19T01:39:55;11.68;;;10.48;;
35743;SDS011;21867;52.012;4.324;2022-08-19T01:42:23;14.05;;;12.73;;
35743;SDS011;21867;52.012;4.324;2022-08-19T01:44:56;15.77;;;14.20;;
35743;SDS011;21867;52.012;4.324;2022-08-19T01:47:23;21.40;;;14.57;;
35743;SDS011;21867;52.012;4.324;2022-08-19T01:49:50;19.25;;;14.85;;
35743;SDS011;21867;52.012;4.324;2022-08-19T01:52:18;16.48;;;14.75;;
35743;SDS011;21867;52.012;4.324;2022-08-19T01:54:45;18.13;;;14.43;;
35743;SDS011;21867;52.012;4.324;2022-08-19T01:57:14;17.00;;;14.77;;
35743;SDS011;21867;52.012;4.324;2022-08-19T01:59:41;17.90;;;16.00;;
35743;SDS011;21867;52.012;4.324;2022-08-19T02:02:10;21.13;;;15.45;;
35743;SDS011;21867;52.012;4.324;2022-08-19T02:04:37;22.10;;;18.05;;
35743;SDS011;21867;52.012;4.324;2022-08-19T02:07:05;16.77;;;14.68;;
35743;SDS011;21867;52.012;4.324;2022-08-19T02:09:35;20.80;;;18.67;;
35743;SDS011;21867;52.012;4.324;2022-08-19T02:12:06;25.38;;;19.67;;
35743;SDS011;21867;52.012;4.324;2022-08-19T02:14:35;23.13;;;20.67;;
35743;SDS011;21867;52.012;4.324;2022-08-19T02:17:03;23.95;;;20.00;;
35743;SDS011;21867;52.012;4.324;2022-08-19T02:19:30;23.48;;;19.52;;
35743;SDS011;21867;52.012;4.324;2022-08-19T02:21:58;19.35;;;17.17;;
35743;SDS011;21867;52.012;4.324;2022-08-19T02:24:25;26.45;;;21.67;;
35743;SDS011;21867;52.012;4.324;2022-08-19T02:26:53;26.52;;;22.33;;
35743;SDS011;21867;52.012;4.324;2022-08-19T02:29:20;19.98;;;18.05;;
35743;SDS011;21867;52.012;4.324;2022-08-19T02:31:49;24.63;;;21.52;;
35743;SDS011;21867;52.012;4.324;2022-08-19T02:34:16;24.20;;;21.25;;
35743;SDS011;21867;52.012;4.324;2022-08-19T02:36:44;25.55;;;21.70;;
35743;SDS011;21867;52.012;4.324;2022-08-19T02:39:17;26.05;;;22.52;;
35743;SDS011;21867;52.012;4.324;2022-08-19T02:41:45;24.20;;;19.25;;
35743;SDS011;21867;52.012;4.324;2022-08-19T02:44:13;24.10;;;19.20;;
35743;SDS011;21867;52.012;4.324;2022-08-19T02:46:58;25.48;;;20.27;;
35743;SDS011;21867;52.012;4.324;2022-08-19T02:49:25;22.30;;;18.73;;
35743;SDS011;21867;52.012;4.324;2022-08-19T02:51:53;20.95;;;17.88;;
35743;SDS011;21867;52.012;4.324;2022-08-19T02:54:20;22.98;;;20.27;;
35743;SDS011;21867;52.012;4.324;2022-08-19T02:56:47;20.83;;;17.58;;
35743;SDS011;21867;52.012;4.324;2022-08-19T02:59:15;21.65;;;19.58;;
35743;SDS011;21867;52.012;4.324;2022-08-19T03:01:42;23.37;;;19.53;;
35743;SDS011;21867;52.012;4.324;2022-08-19T03:04:12;23.80;;;20.58;;
35743;SDS011;21867;52.012;4.324;2022-08-19T03:06:42;22.38;;;19.98;;
35743;SDS011;21867;52.012;4.324;2022-08-19T03:09:09;23.05;;;20.42;;
35743;SDS011;21867;52.012;4.324;2022-08-19T03:11:37;25.52;;;20.77;;
35743;SDS011;21867;52.012;4.324;2022-08-19T03:14:05;26.05;;;21.90;;
35743;SDS011;21867;52.012;4.324;2022-08-19T03:16:34;23.38;;;20.92;;
35743;SDS011;21867;52.012;4.324;2022-08-19T03:19:06;25.67;;;21.27;;
35743;SDS011;21867;52.012;4.324;2022-08-19T03:21:35;27.20;;;22.17;;
35743;SDS011;21867;52.012;4.324;2022-08-19T03:24:03;24.52;;;20.70;;
35743;SDS011;21867;52.012;4.324;2022-08-19T03:26:31;27.80;;;21.70;;
35743;SDS011;21867;52.012;4.324;2022-08-19T03:29:12;30.83;;;24.03;;
35743;SDS011;21867;52.012;4.324;2022-08-19T03:31:50;26.60;;;23.73;;
35743;SDS011;21867;52.012;4.324;2022-08-19T03:34:19;26.58;;;23.33;;
35743;SDS011;21867;52.012;4.324;2022-08-19T03:36:49;30.40;;;25.00;;
35743;SDS011;21867;52.012;4.324;2022-08-19T03:39:17;28.50;;;23.88;;
35743;SDS011;21867;52.012;4.324;2022-08-19T03:41:46;34.50;;;26.45;;
35743;SDS011;21867;52.012;4.324;2022-08-19T03:44:14;32.17;;;26.58;;
35743;SDS011;21867;52.012;4.324;2022-08-19T03:46:44;33.30;;;28.13;;
35743;SDS011;21867;52.012;4.324;2022-08-19T03:49:12;39.07;;;30.43;;
35743;SDS011;21867;52.012;4.324;2022-08-19T03:51:40;37.90;;;29.38;;
35743;SDS011;21867;52.012;4.324;2022-08-19T03:54:10;41.37;;;33.60;;
35743;SDS011;21867;52.012;4.324;2022-08-19T03:56:39;43.05;;;33.72;;
35743;SDS011;21867;52.012;4.324;2022-08-19T03:59:08;43.23;;;34.03;;
35743;SDS011;21867;52.012;4.324;2022-08-19T04:01:35;39.15;;;33.67;;
35743;SDS011;21867;52.012;4.324;2022-08-19T04:04:03;42.27;;;34.33;;
35743;SDS011;21867;52.012;4.324;2022-08-19T04:06:31;43.13;;;33.57;;
35743;SDS011;21867;52.012;4.324;2022-08-19T04:09:05;40.50;;;33.92;;
35743;SDS011;21867;52.012;4.324;2022-08-19T04:11:55;43.30;;;35.03;;
35743;SDS011;21867;52.012;4.324;2022-08-19T04:14:24;44.97;;;36.97;;
35743;SDS011;21867;52.012;4.324;2022-08-19T04:16:52;47.40;;;34.20;;
35743;SDS011;21867;52.012;4.324;2022-08-19T04:19:19;43.33;;;33.50;;
35743;SDS011;21867;52.012;4.324;2022-08-19T04:21:48;40.17;;;33.10;;
35743;SDS011;21867;52.012;4.324;2022-08-19T04:24:16;36.55;;;29.50;;
35743;SDS011;21867;52.012;4.324;2022-08-19T04:26:43;42.50;;;34.45;;
35743;SDS011;21867;52.012;4.324;2022-08-19T04:29:13;44.03;;;31.38;;
35743;SDS011;21867;52.012;4.324;2022-08-19T04:31:42;42.65;;;29.30;;
35743;SDS011;21867;52.012;4.324;2022-08-19T04:34:10;41.13;;;30.48;;
35743;SDS011;21867;52.012;4.324;2022-08-19T04:36:39;36.90;;;30.23;;
35743;SDS011;21867;52.012;4.324;2022-08-19T04:39:08;39.78;;;31.55;;
35743;SDS011;21867;52.012;4.324;2022-08-19T04:41:35;39.77;;;29.70;;
35743;SDS011;21867;52.012;4.324;2022-08-19T04:44:03;35.77;;;26.53;;
35743;SDS011;21867;52.012;4.324;2022-08-19T04:46:32;41.30;;;27.97;;
35743;SDS011;21867;52.012;4.324;2022-08-19T04:49:10;34.27;;;26.97;;
35743;SDS011;21867;52.012;4.324;2022-08-19T04:51:39;29.97;;;22.17;;
35743;SDS011;21867;52.012;4.324;2022-08-19T04:54:07;35.97;;;28.13;;
35743;SDS011;21867;52.012;4.324;2022-08-19T04:56:34;39.43;;;27.63;;
35743;SDS011;21867;52.012;4.324;2022-08-19T04:59:02;35.73;;;26.87;;
35743;SDS011;21867;52.012;4.324;2022-08-19T05:01:30;36.00;;;25.53;;
35743;SDS011;21867;52.012;4.324;2022-08-19T05:03:59;35.53;;;25.23;;
35743;SDS011;21867;52.012;4.324;2022-08-19T05:06:26;37.90;;;25.23;;
35743;SDS011;21867;52.012;4.324;2022-08-19T05:08:54;33.23;;;25.60;;
35743;SDS011;21867;52.012;4.324;2022-08-19T05:11:23;37.63;;;24.00;;
35743;SDS011;21867;52.012;4.324;2022-08-19T05:14:05;36.00;;;25.33;;
35743;SDS011;21867;52.012;4.324;2022-08-19T05:16:48;39.93;;;26.37;;
35743;SDS011;21867;52.012;4.324;2022-08-19T05:19:33;34.97;;;25.53;;
35743;SDS011;21867;52.012;4.324;2022-08-19T05:22:00;29.23;;;23.97;;
35743;SDS011;21867;52.012;4.324;2022-08-19T05:24:27;33.10;;;24.40;;
35743;SDS011;21867;52.012;4.324;2022-08-19T05:26:56;33.57;;;24.27;;
35743;SDS011;21867;52.012;4.324;2022-08-19T05:29:25;32.93;;;24.93;;
35743;SDS011;21867;52.012;4.324;2022-08-19T05:32:02;31.23;;;23.60;;
35743;SDS011;21867;52.012;4.324;2022-08-19T05:34:29;30.60;;;21.80;;
35743;SDS011;21867;52.012;4.324;2022-08-19T05:36:58;36.73;;;22.47;;
35743;SDS011;21867;52.012;4.324;2022-08-19T05:39:26;32.40;;;22.93;;
35743;SDS011;21867;52.012;4.324;2022-08-19T05:41:56;30.57;;;22.30;;
35743;SDS011;21867;52.012;4.324;2022-08-19T05:44:24;30.17;;;20.97;;
35743;SDS011;21867;52.012;4.324;2022-08-19T05:46:51;39.03;;;22.70;;
35743;SDS011;21867;52.012;4.324;2022-08-19T05:49:20;27.83;;;16.23;;
35743;SDS011;21867;52.012;4.324;2022-08-19T05:51:48;33.53;;;20.00;;
35743;SDS011;21867;52.012;4.324;2022-08-19T05:54:17;27.27;;;20.97;;
35743;SDS011;21867;52.012;4.324;2022-08-19T05:56:45;32.75;;;21.42;;
35743;SDS011;21867;52.012;4.324;2022-08-19T05:59:12;27.60;;;19.03;;
35743;SDS011;21867;52.012;4.324;2022-08-19T06:04:40;29.83;;;20.60;;
35743;SDS011;21867;52.012;4.324;2022-08-19T06:07:08;25.70;;;18.07;;
35743;SDS011;21867;52.012;4.324;2022-08-19T06:09:40;30.50;;;20.70;;
35743;SDS011;21867;52.012;4.324;2022-08-19T06:12:19;33.63;;;20.70;;
35743;SDS011;21867;52.012;4.324;2022-08-19T06:14:47;31.10;;;20.50;;
35743;SDS011;21867;52.012;4.324;2022-08-19T06:17:26;31.27;;;21.67;;
35743;SDS011;21867;52.012;4.324;2022-08-19T06:19:53;32.10;;;20.50;;
35743;SDS011;21867;52.012;4.324;2022-08-19T06:22:20;35.53;;;21.30;;
35743;SDS011;21867;52.012;4.324;2022-08-19T06:24:49;31.87;;;19.97;;
35743;SDS011;21867;52.012;4.324;2022-08-19T06:27:16;32.20;;;20.23;;
35743;SDS011;21867;52.012;4.324;2022-08-19T06:29:43;28.07;;;19.80;;
35743;SDS011;21867;52.012;4.324;2022-08-19T06:32:11;25.80;;;18.93;;
35743;SDS011;21867;52.012;4.324;2022-08-19T06:34:38;27.00;;;18.63;;
35743;SDS011;21867;52.012;4.324;2022-08-19T06:37:05;25.47;;;18.33;;
35743;SDS011;21867;52.012;4.324;2022-08-19T06:39:34;24.50;;;19.00;;
35743;SDS011;21867;52.012;4.324;2022-08-19T06:42:05;24.40;;;16.98;;
35743;SDS011;21867;52.012;4.324;2022-08-19T06:44:35;29.03;;;19.30;;
35743;SDS011;21867;52.012;4.324;2022-08-19T06:47:09;28.00;;;17.90;;
35743;SDS011;21867;52.012;4.324;2022-08-19T06:49:48;21.37;;;16.30;;
35743;SDS011;21867;52.012;4.324;2022-08-19T06:52:15;24.70;;;17.00;;
35743;SDS011;21867;52.012;4.324;2022-08-19T06:54:43;29.83;;;20.37;;
35743;SDS011;21867;52.012;4.324;2022-08-19T06:57:23;29.93;;;18.33;;
35743;SDS011;21867;52.012;4.324;2022-08-19T06:59:51;28.43;;;18.57;;
35743;SDS011;21867;52.012;4.324;2022-08-19T07:02:18;28.27;;;15.80;;
35743;SDS011;21867;52.012;4.324;2022-08-19T07:04:46;22.33;;;16.27;;
35743;SDS011;21867;52.012;4.324;2022-08-19T07:07:18;24.90;;;17.03;;
35743;SDS011;21867;52.012;4.324;2022-08-19T07:09:47;18.13;;;12.93;;
35743;SDS011;21867;52.012;4.324;2022-08-19T07:12:27;23.23;;;16.20;;
35743;SDS011;21867;52.012;4.324;2022-08-19T07:14:56;23.27;;;14.07;;
35743;SDS011;21867;52.012;4.324;2022-08-19T07:17:23;21.20;;;14.38;;
35743;SDS011;21867;52.012;4.324;2022-08-19T07:19:50;23.53;;;15.23;;
35743;SDS011;21867;52.012;4.324;2022-08-19T07:22:20;25.03;;;13.97;;
35743;SDS011;21867;52.012;4.324;2022-08-19T07:24:49;16.48;;;8.10;;
35743;SDS011;21867;52.012;4.324;2022-08-19T07:27:17;13.10;;;7.37;;
35743;SDS011;21867;52.012;4.324;2022-08-19T07:29:52;19.17;;;13.88;;
35743;SDS011;21867;52.012;4.324;2022-08-19T07:32:24;14.73;;;9.73;;
35743;SDS011;21867;52.012;4.324;2022-08-19T07:34:52;16.80;;;12.43;;
35743;SDS011;21867;52.012;4.324;2022-08-19T07:37:19;17.95;;;12.13;;
35743;SDS011;21867;52.012;4.324;2022-08-19T07:39:47;18.13;;;11.60;;
35743;SDS011;21867;52.012;4.324;2022-08-19T07:42:14;19.50;;;12.13;;
35743;SDS011;21867;52.012;4.324;2022-08-19T07:44:42;13.40;;;9.70;;
35743;SDS011;21867;52.012;4.324;2022-08-19T07:47:20;19.55;;;11.20;;
35743;SDS011;21867;52.012;4.324;2022-08-19T07:50:08;15.27;;;11.27;;
35743;SDS011;21867;52.012;4.324;2022-08-19T07:52:37;17.37;;;10.43;;
35743;SDS011;21867;52.012;4.324;2022-08-19T07:55:05;14.13;;;6.38;;
35743;SDS011;21867;52.012;4.324;2022-08-19T07:57:52;10.93;;;6.47;;
35743;SDS011;21867;52.012;4.324;2022-08-19T08:00:19;11.37;;;6.43;;
35743;SDS011;21867;52.012;4.324;2022-08-19T08:02:51;9.15;;;4.45;;
35743;SDS011;21867;52.012;4.324;2022-08-19T08:05:21;11.00;;;5.47;;
35743;SDS011;21867;52.012;4.324;2022-08-19T08:07:48;8.85;;;6.05;;
35743;SDS011;21867;52.012;4.324;2022-08-19T08:10:15;10.67;;;6.60;;
35743;SDS011;21867;52.012;4.324;2022-08-19T08:12:46;6.43;;;4.75;;
35743;SDS011;21867;52.012;4.324;2022-08-19T08:15:43;5.67;;;4.57;;
35743;SDS011;21867;52.012;4.324;2022-08-19T08:21:07;4.43;;;3.80;;
35743;SDS011;21867;52.012;4.324;2022-08-19T08:23:35;8.90;;;6.22;;
35743;SDS011;21867;52.012;4.324;2022-08-19T08:26:10;11.07;;;5.50;;
35743;SDS011;21867;52.012;4.324;2022-08-19T08:28:38;11.10;;;5.87;;
35743;SDS011;21867;52.012;4.324;2022-08-19T08:31:06;14.27;;;5.40;;
35743;SDS011;21867;52.012;4.324;2022-08-19T08:33:35;8.13;;;4.90;;
35743;SDS011;21867;52.012;4.324;2022-08-19T08:36:09;10.13;;;5.28;;
35743;SDS011;21867;52.012;4.324;2022-08-19T08:38:37;12.88;;;5.30;;
35743;SDS011;21867;52.012;4.324;2022-08-19T08:41:09;10.88;;;4.90;;
35743;SDS011;21867;52.012;4.324;2022-08-19T08:43:40;13.77;;;6.13;;
35743;SDS011;21867;52.012;4.324;2022-08-19T08:46:25;10.88;;;5.75;;
35743;SDS011;21867;52.012;4.324;2022-08-19T08:49:43;11.52;;;5.45;;
35743;SDS011;21867;52.012;4.324;2022-08-19T08:52:18;10.60;;;6.93;;
35743;SDS011;21867;52.012;4.324;2022-08-19T08:54:48;4.93;;;4.20;;
35743;SDS011;21867;52.012;4.324;2022-08-19T08:57:23;10.43;;;4.75;;
35743;SDS011;21867;52.012;4.324;2022-08-19T08:59:56;8.02;;;5.07;;
35743;SDS011;21867;52.012;4.324;2022-08-19T09:02:23;9.45;;;3.35;;
35743;SDS011;21867;52.012;4.324;2022-08-19T09:04:54;7.95;;;4.35;;
35743;SDS011;21867;52.012;4.324;2022-08-19T09:07:28;7.80;;;4.15;;
35743;SDS011;21867;52.012;4.324;2022-08-19T09:10:02;7.40;;;3.45;;
35743;SDS011;21867;52.012;4.324;2022-08-19T09:12:33;8.38;;;3.47;;
35743;SDS011;21867;52.012;4.324;2022-08-19T09:15:09;9.43;;;4.35;;
35743;SDS011;21867;52.012;4.324;2022-08-19T09:17:43;6.67;;;3.20;;
35743;SDS011;21867;52.012;4.324;2022-08-19T09:20:21;8.43;;;3.53;;
35743;SDS011;21867;52.012;4.324;2022-08-19T09:22:52;6.78;;;3.58;;
35743;SDS011;21867;52.012;4.324;2022-08-19T09:25:20;5.15;;;3.45;;
35743;SDS011;21867;52.012;4.324;2022-08-19T09:27:52;7.30;;;3.13;;
35743;SDS011;21867;52.012;4.324;2022-08-19T09:30:28;7.37;;;3.47;;
35743;SDS011;21867;52.012;4.324;2022-08-19T09:32:56;10.73;;;3.22;;
35743;SDS011;21867;52.012;4.324;2022-08-19T09:35:24;3.08;;;2.47;;
35743;SDS011;21867;52.012;4.324;2022-08-19T09:37:55;4.65;;;2.80;;
35743;SDS011;21867;52.012;4.324;2022-08-19T09:40:25;14.43;;;3.50;;
35743;SDS011;21867;52.012;4.324;2022-08-19T09:42:56;7.65;;;3.40;;
35743;SDS011;21867;52.012;4.324;2022-08-19T09:45:23;9.03;;;3.53;;
35743;SDS011;21867;52.012;4.324;2022-08-19T09:47:51;3.17;;;2.38;;
35743;SDS011;21867;52.012;4.324;2022-08-19T09:50:25;5.45;;;2.90;;
35743;SDS011;21867;52.012;4.324;2022-08-19T09:52:52;4.07;;;2.97;;
35743;SDS011;21867;52.012;4.324;2022-08-19T09:55:24;5.53;;;2.67;;
35743;SDS011;21867;52.012;4.324;2022-08-19T09:57:58;5.85;;;2.90;;
35743;SDS011;21867;52.012;4.324;2022-08-19T10:00:25;6.28;;;3.42;;
35743;SDS011;21867;52.012;4.324;2022-08-19T10:02:52;3.58;;;2.53;;
35743;SDS011;21867;52.012;4.324;2022-08-19T10:05:20;8.52;;;3.10;;
35743;SDS011;21867;52.012;4.324;2022-08-19T10:07:52;3.22;;;2.40;;
35743;SDS011;21867;52.012;4.324;2022-08-19T10:10:22;3.72;;;2.47;;
35743;SDS011;21867;52.012;4.324;2022-08-19T10:12:51;4.63;;;2.78;;
35743;SDS011;21867;52.012;4.324;2022-08-19T10:15:18;4.93;;;3.10;;
35743;SDS011;21867;52.012;4.324;2022-08-19T10:20:43;4.53;;;2.45;;
35743;SDS011;21867;52.012;4.324;2022-08-19T10:23:17;4.30;;;2.40;;
35743;SDS011;21867;52.012;4.324;2022-08-19T10:25:44;2.63;;;2.25;;
35743;SDS011;21867;52.012;4.324;2022-08-19T10:28:14;6.95;;;3.08;;
35743;SDS011;21867;52.012;4.324;2022-08-19T10:30:45;7.70;;;2.42;;
35743;SDS011;21867;52.012;4.324;2022-08-19T10:33:12;8.93;;;2.47;;
35743;SDS011;21867;52.012;4.324;2022-08-19T10:35:40;8.45;;;2.85;;
35743;SDS011;21867;52.012;4.324;2022-08-19T10:38:22;5.95;;;2.75;;
35743;SDS011;21867;52.012;4.324;2022-08-19T10:41:05;4.93;;;2.45;;
35743;SDS011;21867;52.012;4.324;2022-08-19T10:43:34;5.40;;;2.63;;
35743;SDS011;21867;52.012;4.324;2022-08-19T10:46:01;8.45;;;3.03;;
35743;SDS011;21867;52.012;4.324;2022-08-19T10:48:29;5.18;;;2.05;;
35743;SDS011;21867;52.012;4.324;2022-08-19T10:50:56;3.10;;;2.55;;
35743;SDS011;21867;52.012;4.324;2022-08-19T10:53:24;3.25;;;2.10;;
35743;SDS011;21867;52.012;4.324;2022-08-19T10:55:51;5.45;;;2.78;;
35743;SDS011;21867;52.012;4.324;2022-08-19T10:58:20;2.92;;;2.03;;
35743;SDS011;21867;52.012;4.324;2022-08-19T11:00:55;6.18;;;2.15;;
35743;SDS011;21867;52.012;4.324;2022-08-19T11:03:24;4.05;;;2.67;;
35743;SDS011;21867;52.012;4.324;2022-08-19T11:05:58;6.83;;;2.50;;
35743;SDS011;21867;52.012;4.324;2022-08-19T11:08:26;4.32;;;2.17;;
35743;SDS011;21867;52.012;4.324;2022-08-19T11:10:54;7.30;;;2.60;;
35743;SDS011;21867;52.012;4.324;2022-08-19T11:13:24;6.18;;;2.63;;
35743;SDS011;21867;52.012;4.324;2022-08-19T11:16:00;9.25;;;2.40;;
35743;SDS011;21867;52.012;4.324;2022-08-19T11:18:33;5.63;;;2.58;;
35743;SDS011;21867;52.012;4.324;2022-08-19T11:21:11;5.63;;;2.38;;
35743;SDS011;21867;52.012;4.324;2022-08-19T11:23:38;4.72;;;2.50;;
35743;SDS011;21867;52.012;4.324;2022-08-19T11:26:06;7.50;;;2.60;;
35743;SDS011;21867;52.012;4.324;2022-08-19T11:28:33;3.38;;;2.35;;
35743;SDS011;21867;52.012;4.324;2022-08-19T11:31:02;5.70;;;2.35;;
35743;SDS011;21867;52.012;4.324;2022-08-19T11:33:30;8.30;;;2.50;;
35743;SDS011;21867;52.012;4.324;2022-08-19T11:35:58;4.40;;;2.50;;
35743;SDS011;21867;52.012;4.324;2022-08-19T11:38:26;4.63;;;2.75;;
35743;SDS011;21867;52.012;4.324;2022-08-19T11:40:54;5.85;;;2.78;;
35743;SDS011;21867;52.012;4.324;2022-08-19T11:43:21;4.35;;;2.28;;
35743;SDS011;21867;52.012;4.324;2022-08-19T11:45:49;4.15;;;2.53;;
35743;SDS011;21867;52.012;4.324;2022-08-19T11:48:18;15.20;;;4.10;;
35743;SDS011;21867;52.012;4.324;2022-08-19T11:50:45;7.53;;;2.90;;
35743;SDS011;21867;52.012;4.324;2022-08-19T11:53:12;6.75;;;2.80;;
35743;SDS011;21867;52.012;4.324;2022-08-19T11:55:39;6.32;;;3.30;;
35743;SDS011;21867;52.012;4.324;2022-08-19T11:58:09;6.63;;;3.00;;
35743;SDS011;21867;52.012;4.324;2022-08-19T12:00:44;4.65;;;2.47;;
35743;SDS011;21867;52.012;4.324;2022-08-19T12:03:12;7.28;;;3.58;;
35743;SDS011;21867;52.012;4.324;2022-08-19T12:05:41;6.43;;;3.33;;
35743;SDS011;21867;52.012;4.324;2022-08-19T12:08:09;4.88;;;2.88;;
35743;SDS011;21867;52.012;4.324;2022-08-19T12:10:36;4.45;;;2.92;;
35743;SDS011;21867;52.012;4.324;2022-08-19T12:13:12;5.78;;;2.90;;
35743;SDS011;21867;52.012;4.324;2022-08-19T12:15:42;4.75;;;2.97;;
35743;SDS011;21867;52.012;4.324;2022-08-19T12:18:13;4.25;;;2.72;;
35743;SDS011;21867;52.012;4.324;2022-08-19T12:20:42;3.78;;;3.05;;
35743;SDS011;21867;52.012;4.324;2022-08-19T12:23:10;6.15;;;3.50;;
35743;SDS011;21867;52.012;4.324;2022-08-19T12:25:37;4.95;;;3.03;;
35743;SDS011;21867;52.012;4.324;2022-08-19T12:28:10;6.65;;;3.13;;
35743;SDS011;21867;52.012;4.324;2022-08-19T12:30:37;5.30;;;2.70;;
35743;SDS011;21867;52.012;4.324;2022-08-19T12:33:07;8.45;;;3.08;;
35743;SDS011;21867;52.012;4.324;2022-08-19T12:35:34;5.45;;;2.70;;
35743;SDS011;21867;52.012;4.324;2022-08-19T12:38:03;4.47;;;2.13;;
35743;SDS011;21867;52.012;4.324;2022-08-19T12:40:30;3.90;;;2.75;;
35743;SDS011;21867;52.012;4.324;2022-08-19T12:42:58;5.38;;;3.45;;
35743;SDS011;21867;52.012;4.324;2022-08-19T12:45:25;5.43;;;3.15;;
35743;SDS011;21867;52.012;4.324;2022-08-19T12:50:58;4.38;;;2.65;;
35743;SDS011;21867;52.012;4.324;2022-08-19T12:53:27;3.50;;;2.53;;
35743;SDS011;21867;52.012;4.324;2022-08-19T12:55:54;5.03;;;2.63;;
35743;SDS011;21867;52.012;4.324;2022-08-19T12:58:22;3.10;;;2.08;;
35743;SDS011;21867;52.012;4.324;2022-08-19T13:00:52;3.60;;;2.63;;
35743;SDS011;21867;52.012;4.324;2022-08-19T13:03:20;4.10;;;2.33;;
35743;SDS011;21867;52.012;4.324;2022-08-19T13:05:48;3.72;;;2.72;;
35743;SDS011;21867;52.012;4.324;2022-08-19T13:08:17;5.00;;;1.92;;
35743;SDS011;21867;52.012;4.324;2022-08-19T13:10:46;3.17;;;1.88;;
35743;SDS011;21867;52.012;4.324;2022-08-19T13:13:13;3.30;;;2.22;;
35743;SDS011;21867;52.012;4.324;2022-08-19T13:15:41;6.03;;;2.38;;
35743;SDS011;21867;52.012;4.324;2022-08-19T13:18:09;4.15;;;2.10;;
35743;SDS011;21867;52.012;4.324;2022-08-19T13:20:36;3.28;;;2.10;;
35743;SDS011;21867;52.012;4.324;2022-08-19T13:23:04;5.38;;;2.08;;
35743;SDS011;21867;52.012;4.324;2022-08-19T13:25:31;3.22;;;2.10;;
35743;SDS011;21867;52.012;4.324;2022-08-19T13:28:00;3.63;;;2.60;;
35743;SDS011;21867;52.012;4.324;2022-08-19T13:30:27;2.67;;;1.48;;
35743;SDS011;21867;52.012;4.324;2022-08-19T13:32:54;2.92;;;1.73;;
35743;SDS011;21867;52.012;4.324;2022-08-19T13:35:22;4.88;;;2.47;;
35743;SDS011;21867;52.012;4.324;2022-08-19T13:37:49;3.50;;;1.95;;
35743;SDS011;21867;52.012;4.324;2022-08-19T13:40:17;3.97;;;2.33;;
35743;SDS011;21867;52.012;4.324;2022-08-19T13:42:46;5.38;;;2.75;;
35743;SDS011;21867;52.012;4.324;2022-08-19T13:45:17;3.42;;;2.35;;
35743;SDS011;21867;52.012;4.324;2022-08-19T13:47:45;4.15;;;2.33;;
35743;SDS011;21867;52.012;4.324;2022-08-19T13:50:14;2.47;;;2.10;;
35743;SDS011;21867;52.012;4.324;2022-08-19T13:52:42;3.80;;;2.35;;
35743;SDS011;21867;52.012;4.324;2022-08-19T13:55:10;3.55;;;2.55;;
35743;SDS011;21867;52.012;4.324;2022-08-19T13:57:38;2.40;;;2.15;;
35743;SDS011;21867;52.012;4.324;2022-08-19T14:00:06;3.15;;;1.80;;
35743;SDS011;21867;52.012;4.324;2022-08-19T14:02:36;4.65;;;2.70;;
35743;SDS011;21867;52.012;4.324;2022-08-19T14:05:03;4.22;;;2.67;;
35743;SDS011;21867;52.012;4.324;2022-08-19T14:07:31;3.13;;;1.98;;
35743;SDS011;21867;52.012;4.324;2022-08-19T14:09:58;5.90;;;2.28;;
35743;SDS011;21867;52.012;4.324;2022-08-19T14:12:25;2.30;;;2.10;;
35743;SDS011;21867;52.012;4.324;2022-08-19T14:14:54;5.85;;;2.45;;
35743;SDS011;21867;52.012;4.324;2022-08-19T14:17:22;3.70;;;2.30;;
35743;SDS011;21867;52.012;4.324;2022-08-19T14:19:51;3.45;;;1.88;;
35743;SDS011;21867;52.012;4.324;2022-08-19T14:22:41;3.65;;;2.35;;
35743;SDS011;21867;52.012;4.324;2022-08-19T14:25:10;5.75;;;2.65;;
35743;SDS011;21867;52.012;4.324;2022-08-19T14:27:39;3.65;;;2.08;;
35743;SDS011;21867;52.012;4.324;2022-08-19T14:30:07;2.80;;;2.13;;
35743;SDS011;21867;52.012;4.324;2022-08-19T14:32:36;2.33;;;2.13;;
35743;SDS011;21867;52.012;4.324;2022-08-19T14:35:05;3.65;;;2.30;;
35743;SDS011;21867;52.012;4.324;2022-08-19T14:37:34;3.80;;;2.17;;
35743;SDS011;21867;52.012;4.324;2022-08-19T14:40:11;2.33;;;2.05;;
35743;SDS011;21867;52.012;4.324;2022-08-19T14:42:39;3.08;;;2.10;;
35743;SDS011;21867;52.012;4.324;2022-08-19T14:45:15;5.70;;;2.00;;
35743;SDS011;21867;52.012;4.324;2022-08-19T14:48:01;6.88;;;2.50;;
35743;SDS011;21867;52.012;4.324;2022-08-19T14:50:48;5.20;;;2.40;;
35743;SDS011;21867;52.012;4.324;2022-08-19T14:53:21;3.75;;;2.22;;
35743;SDS011;21867;52.012;4.324;2022-08-19T14:55:48;4.72;;;2.67;;
35743;SDS011;21867;52.012;4.324;2022-08-19T14:58:16;4.10;;;2.33;;
35743;SDS011;21867;52.012;4.324;2022-08-19T15:00:56;2.13;;;1.92;;
35743;SDS011;21867;52.012;4.324;2022-08-19T15:03:23;5.65;;;1.98;;
35743;SDS011;21867;52.012;4.324;2022-08-19T15:08:42;3.72;;;1.52;;